Time;durP1;ratioP1;P1;durP2;ratioP2;P2;SDS_P1;SDS_P2;PMS_P1;PMS_P2;Temp;Humidity;BMP_temperature;BMP_pressure;BME280_temperature;BME280_humidity;BME280_pressure;Samples;Min_cycle;Max_cycle;Signal;HPM_P1;HPM_P2
2023/05/04 00:01:38;;;;;;;25.37;21.87;;;12.40;95.90;;;;;;5047314;28;20213;-72
2023/05/04 00:04:04;;;;;;;27.23;23.90;;;12.40;96.00;;;;;;5040340;28;20307;-72
2023/05/04 00:06:30;;;;;;;25.60;22.70;;;12.40;96.00;;;;;;5032873;28;20222;-72
2023/05/04 00:08:55;;;;;;;19.63;17.53;;;12.30;95.90;;;;;;5034956;28;20323;-73
2023/05/04 00:11:21;;;;;;;13.67;11.60;;;12.20;96.40;;;;;;5034344;28;20220;-72
2023/05/04 00:13:47;;;;;;;21.63;19.70;;;12.20;96.30;;;;;;5040727;28;20294;-72
2023/05/04 00:16:13;;;;;;;18.00;16.30;;;12.30;96.50;;;;;;5020511;28;20213;-73
2023/05/04 00:18:38;;;;;;;17.77;16.27;;;12.20;96.30;;;;;;5035792;28;20222;-72
2023/05/04 00:21:05;;;;;;;12.20;11.00;;;12.30;96.30;;;;;;5016860;28;20279;-71
2023/05/04 00:23:30;;;;;;;7.67;7.07;;;12.30;96.20;;;;;;5021390;28;20671;-72
2023/05/04 00:25:59;;;;;;;5.70;5.20;;;12.20;96.20;;;;;;5031126;28;20487;-72
2023/05/04 00:28:25;;;;;;;5.87;4.20;;;12.20;96.30;;;;;;5033234;28;20232;-72
2023/05/04 00:30:53;;;;;;;6.07;4.17;;;12.20;96.30;;;;;;5010256;28;20456;-71
2023/05/04 00:33:20;;;;;;;3.73;3.43;;;12.00;96.30;;;;;;5044144;28;20221;-72
2023/05/04 00:35:46;;;;;;;3.50;3.20;;;12.00;96.60;;;;;;5020872;28;20481;-72
2023/05/04 00:38:12;;;;;;;3.50;3.20;;;12.00;96.60;;;;;;5037797;28;20464;-72
2023/05/04 00:40:41;;;;;;;3.30;2.80;;;11.90;96.70;;;;;;5033036;28;20217;-72
2023/05/04 00:43:07;;;;;;;4.87;3.53;;;11.90;96.70;;;;;;5020399;28;20933;-72
2023/05/04 00:45:34;;;;;;;2.67;2.43;;;11.90;96.80;;;;;;5025316;28;20455;-73
2023/05/04 00:48:00;;;;;;;6.10;2.87;;;11.80;96.60;;;;;;5034409;28;20555;-71
2023/05/04 00:50:26;;;;;;;3.67;2.57;;;11.80;96.50;;;;;;5029379;28;20451;-72
2023/05/04 00:52:55;;;;;;;3.67;2.63;;;11.80;96.50;;;;;;5032402;28;20453;-73
2023/05/04 00:55:21;;;;;;;3.27;2.97;;;11.80;96.60;;;;;;5015090;28;20506;-72
2023/05/04 00:57:51;;;;;;;3.87;3.00;;;11.70;96.70;;;;;;5020519;28;20465;-73
2023/05/04 01:00:16;;;;;;;3.93;2.57;;;11.50;97.00;;;;;;5035953;28;20463;-72
2023/05/04 01:02:42;;;;;;;3.50;2.97;;;11.60;96.80;;;;;;5027552;28;20463;-71
2023/05/04 01:05:11;;;;;;;3.50;3.07;;;11.70;96.80;;;;;;5018309;28;20271;-72
2023/05/04 01:07:49;;;;;;;2.87;2.63;;;11.70;96.80;;;;;;5016175;28;20223;-72
2023/05/04 01:10:28;;;;;;;3.33;3.03;;;11.60;96.80;;;;;;5009620;28;20831;-72
2023/05/04 01:13:06;;;;;;;4.17;3.20;;;11.50;96.90;;;;;;5033288;28;21040;-72
2023/05/04 01:15:34;;;;;;;4.13;2.67;;;11.50;97.10;;;;;;5031403;28;20463;-72
2023/05/04 01:18:00;;;;;;;3.57;3.23;;;11.60;96.90;;;;;;5013881;28;20830;-71
2023/05/04 01:20:26;;;;;;;3.20;2.70;;;11.60;96.90;;;;;;5017662;28;20444;-71
2023/05/04 01:22:52;;;;;;;3.43;3.13;;;11.50;96.90;;;;;;5036104;28;20460;-72
2023/05/04 01:25:19;;;;;;;2.90;2.17;;;11.50;97.00;;;;;;5029908;28;20221;-71
2023/05/04 01:27:48;;;;;;;3.17;2.87;;;11.50;97.10;;;;;;5013772;28;20460;-72
2023/05/04 01:30:21;;;;;;;4.50;3.57;;;11.50;96.80;;;;;;5027479;28;20468;-72
2023/05/04 01:32:47;;;;;;;3.67;3.10;;;11.40;97.00;;;;;;5020771;28;20800;-72
2023/05/04 01:35:12;;;;;;;3.93;2.60;;;11.40;97.10;;;;;;5036174;28;20852;-72
2023/05/04 01:37:39;;;;;;;3.10;2.80;;;11.30;97.20;;;;;;5042364;28;20553;-71
2023/05/04 01:40:05;;;;;;;2.87;2.30;;;11.20;97.20;;;;;;5040503;28;20217;-72
2023/05/04 01:42:30;;;;;;;3.80;2.80;;;11.30;97.20;;;;;;5036499;28;20498;-72
2023/05/04 01:44:56;;;;;;;2.63;2.40;;;11.30;97.20;;;;;;5044189;28;20476;-72
2023/05/04 01:47:22;;;;;;;3.47;2.90;;;11.20;97.30;;;;;;5037410;28;20293;-72
2023/05/04 01:49:48;;;;;;;4.03;3.10;;;11.20;97.40;;;;;;5041750;28;20220;-72
2023/05/04 01:52:14;;;;;;;3.27;2.67;;;11.20;97.20;;;;;;5040443;28;20446;-71
2023/05/04 01:54:40;;;;;;;3.03;2.73;;;11.20;97.40;;;;;;5036316;28;20866;-71
2023/05/04 01:57:06;;;;;;;6.33;2.40;;;11.10;97.30;;;;;;5019189;28;20229;-71
2023/05/04 01:59:32;;;;;;;3.33;2.70;;;11.10;97.50;;;;;;5029886;28;20292;-72
2023/05/04 02:01:57;;;;;;;3.77;3.40;;;11.10;97.50;;;;;;5044543;28;20209;-71
2023/05/04 02:04:25;;;;;;;7.47;4.00;;;11.00;97.60;;;;;;5038390;28;20206;-71
2023/05/04 02:06:50;;;;;;;3.80;2.87;;;11.00;97.60;;;;;;5037098;28;20454;-71
2023/05/04 02:09:16;;;;;;;3.30;2.83;;;11.00;97.60;;;;;;5033365;28;20231;-72
2023/05/04 02:11:43;;;;;;;7.20;3.40;;;11.00;97.50;;;;;;5031254;28;20230;-71
2023/05/04 02:14:08;;;;;;;3.13;2.83;;;11.00;97.50;;;;;;5039273;28;20443;-72
2023/05/04 02:16:34;;;;;;;3.37;3.07;;;11.10;97.50;;;;;;5050484;28;20219;-71
2023/05/04 02:19:00;;;;;;;3.33;2.70;;;11.10;97.50;;;;;;5039130;28;20225;-71
2023/05/04 02:21:26;;;;;;;3.20;2.90;;;11.00;97.60;;;;;;5040236;28;20220;-71
2023/05/04 02:23:51;;;;;;;3.67;2.97;;;10.90;97.40;;;;;;5051689;28;20216;-71
2023/05/04 02:26:17;;;;;;;3.03;2.67;;;11.00;97.50;;;;;;5044781;28;20293;-71
2023/05/04 02:28:43;;;;;;;5.03;3.67;;;10.80;97.60;;;;;;5026261;28;20780;-70
2023/05/04 02:31:08;;;;;;;4.10;2.70;;;10.90;97.60;;;;;;5034625;28;20312;-71
2023/05/04 02:33:34;;;;;;;4.60;2.90;;;10.90;97.40;;;;;;5028807;28;20304;-71
2023/05/04 02:36:00;;;;;;;5.47;3.07;;;10.70;97.70;;;;;;5032143;28;20688;-71
2023/05/04 02:38:26;;;;;;;3.83;3.20;;;10.70;97.70;;;;;;5044853;28;20714;-72
2023/05/04 02:40:51;;;;;;;2.80;2.43;;;10.70;97.80;;;;;;5033656;28;20227;-71
2023/05/04 02:43:17;;;;;;;3.13;2.60;;;10.70;97.80;;;;;;5030776;28;20447;-72
2023/05/04 02:45:43;;;;;;;7.90;3.70;;;10.70;97.90;;;;;;5051631;28;20232;-72
2023/05/04 02:48:09;;;;;;;3.90;2.97;;;10.70;97.70;;;;;;5049021;28;20229;-72
2023/05/04 02:50:34;;;;;;;3.17;2.87;;;10.70;97.90;;;;;;5028720;28;20221;-72
2023/05/04 02:53:00;;;;;;;4.30;3.17;;;10.60;97.90;;;;;;5041076;28;20339;-72
2023/05/04 02:55:26;;;;;;;4.03;3.27;;;10.60;97.80;;;;;;5045993;28;20220;-72
2023/05/04 02:57:51;;;;;;;3.20;2.73;;;10.60;97.80;;;;;;5028931;28;20299;-72
2023/05/04 03:00:17;;;;;;;4.67;2.70;;;10.70;97.80;;;;;;5044635;28;20213;-72
2023/05/04 03:02:43;;;;;;;3.33;2.73;;;10.60;97.90;;;;;;5039921;28;20216;-71
2023/05/04 03:05:09;;;;;;;4.40;3.00;;;10.50;97.90;;;;;;5041176;28;20227;-71
2023/05/04 03:07:34;;;;;;;9.97;2.87;;;10.60;97.90;;;;;;5028905;28;20246;-72
2023/05/04 03:10:00;;;;;;;8.30;3.10;;;10.60;97.90;;;;;;5042447;28;20217;-71
2023/05/04 03:12:26;;;;;;;3.00;2.70;;;10.60;97.90;;;;;;5040155;28;20270;-72
2023/05/04 03:14:52;;;;;;;4.63;3.30;;;10.60;97.80;;;;;;5045666;28;20258;-71
2023/05/04 03:17:18;;;;;;;3.97;3.00;;;10.60;97.70;;;;;;5044158;28;20452;-72
2023/05/04 03:19:43;;;;;;;5.10;2.70;;;10.50;97.90;;;;;;5033479;28;20224;-72
2023/05/04 03:22:11;;;;;;;3.40;3.00;;;10.50;97.80;;;;;;5029379;28;20735;-71
2023/05/04 03:24:37;;;;;;;3.73;2.63;;;10.60;98.00;;;;;;5038488;28;20455;-71
2023/05/04 03:27:03;;;;;;;2.67;2.47;;;10.50;98.00;;;;;;5044732;28;20216;-71
2023/05/04 03:29:28;;;;;;;3.97;3.03;;;10.50;97.90;;;;;;5045773;28;21055;-72
2023/05/04 03:31:55;;;;;;;3.87;3.20;;;10.40;97.90;;;;;;5029137;28;20611;-71
2023/05/04 03:34:21;;;;;;;3.40;2.87;;;10.40;98.20;;;;;;5038198;28;20910;-72
2023/05/04 03:36:50;;;;;;;3.63;3.13;;;10.40;98.10;;;;;;5048084;28;20466;-71
2023/05/04 03:39:16;;;;;;;3.30;3.00;;;10.40;98.20;;;;;;5030984;28;20444;-71
2023/05/04 03:41:42;;;;;;;3.97;3.63;;;10.30;98.20;;;;;;5039662;28;20208;-72
2023/05/04 03:44:08;;;;;;;6.30;3.00;;;10.30;98.30;;;;;;5037366;28;20470;-71
2023/05/04 03:46:34;;;;;;;3.30;3.03;;;10.40;98.40;;;;;;5036455;28;20546;-72
2023/05/04 03:49:00;;;;;;;3.80;3.00;;;10.40;98.30;;;;;;5025218;28;20300;-71
2023/05/04 03:51:27;;;;;;;3.37;3.07;;;10.40;98.20;;;;;;5028194;28;20960;-72
2023/05/04 03:53:53;;;;;;;3.50;3.20;;;10.30;98.30;;;;;;5032084;28;20467;-72
2023/05/04 03:56:20;;;;;;;3.73;3.40;;;10.30;98.50;;;;;;5034429;28;20223;-72
2023/05/04 03:58:46;;;;;;;3.30;3.00;;;10.30;98.60;;;;;;5041813;28;20459;-71
2023/05/04 04:01:14;;;;;;;5.00;3.30;;;10.30;98.60;;;;;;5035097;28;20465;-71
2023/05/04 04:03:40;;;;;;;7.80;4.00;;;10.30;98.50;;;;;;5026372;28;20854;-71
2023/05/04 04:06:10;;;;;;;3.33;3.03;;;10.30;98.40;;;;;;5027175;28;20221;-71
2023/05/04 04:08:36;;;;;;;3.60;3.20;;;10.30;98.50;;;;;;5036129;28;21104;-71
2023/05/04 04:11:02;;;;;;;3.53;3.20;;;10.30;98.60;;;;;;5009018;28;20562;-71
2023/05/04 04:13:28;;;;;;;3.60;3.30;;;10.30;98.60;;;;;;5038192;28;20359;-72
2023/05/04 04:15:53;;;;;;;3.57;2.90;;;10.30;98.60;;;;;;5040253;28;20350;-72
2023/05/04 04:18:22;;;;;;;3.50;2.80;;;10.30;98.60;;;;;;5030330;28;20223;-72
2023/05/04 04:20:47;;;;;;;5.70;3.60;;;10.30;98.60;;;;;;5037247;28;20256;-72
2023/05/04 04:23:17;;;;;;;6.17;5.07;;;10.30;98.70;;;;;;5027247;28;20507;-71
2023/05/04 04:25:43;;;;;;;5.73;5.23;;;10.30;98.70;;;;;;5036806;28;20268;-72
2023/05/04 04:28:09;;;;;;;5.87;5.27;;;10.30;98.80;;;;;;5032676;28;20499;-71
2023/05/04 04:30:34;;;;;;;4.47;3.97;;;10.30;98.80;;;;;;5033681;28;20229;-71
2023/05/04 04:33:01;;;;;;;4.53;4.13;;;10.30;98.80;;;;;;5007874;28;20874;-71
2023/05/04 04:35:26;;;;;;;4.40;3.43;;;10.30;98.80;;;;;;5029840;28;20220;-72
2023/05/04 04:37:52;;;;;;;3.73;3.30;;;10.30;99.00;;;;;;5036957;28;20973;-71
2023/05/04 04:40:18;;;;;;;4.10;3.73;;;10.30;98.90;;;;;;5031918;28;20220;-72
2023/05/04 04:42:43;;;;;;;5.50;4.17;;;10.30;99.00;;;;;;5041287;28;20220;-72
2023/05/04 04:45:09;;;;;;;3.47;3.10;;;10.20;99.10;;;;;;5031417;28;20225;-71
2023/05/04 04:47:35;;;;;;;3.77;3.37;;;10.20;99.10;;;;;;5041956;28;20690;-71
2023/05/04 04:50:04;;;;;;;5.13;4.07;;;10.20;99.10;;;;;;5015617;28;20483;-72
2023/05/04 04:52:31;;;;;;;7.87;4.20;;;10.30;99.20;;;;;;5037070;28;20218;-71
2023/05/04 04:54:57;;;;;;;3.83;3.53;;;10.30;99.30;;;;;;5035610;28;20463;-71
2023/05/04 04:57:22;;;;;;;3.80;3.50;;;10.30;98.90;;;;;;5041761;28;20463;-72
2023/05/04 04:59:48;;;;;;;7.60;3.90;;;10.30;99.10;;;;;;5030116;28;20244;-72
2023/05/04 05:02:14;;;;;;;4.10;3.70;;;10.30;99.30;;;;;;5033173;28;20279;-71
2023/05/04 05:04:40;;;;;;;3.57;2.97;;;10.30;99.80;;;;;;5027732;28;20695;-72
2023/05/04 05:07:07;;;;;;;7.27;4.70;;;10.30;99.70;;;;;;5032409;28;20236;-71
2023/05/04 05:09:34;;;;;;;10.10;3.47;;;10.30;99.40;;;;;;5034012;28;20224;-72
2023/05/04 05:11:59;;;;;;;5.53;4.23;;;10.30;99.30;;;;;;5029359;28;20535;-70
2023/05/04 05:14:26;;;;;;;6.70;3.47;;;10.30;99.60;;;;;;5037917;28;20578;-71
2023/05/04 05:16:52;;;;;;;4.10;3.77;;;10.30;99.70;;;;;;5037222;28;20591;-71
2023/05/04 05:19:18;;;;;;;3.90;3.60;;;10.40;99.70;;;;;;5032910;28;20456;-72
2023/05/04 05:21:43;;;;;;;4.83;3.47;;;10.40;99.70;;;;;;5031299;28;20516;-71
2023/05/04 05:24:09;;;;;;;3.40;3.10;;;10.40;99.70;;;;;;5022453;28;20586;-71
2023/05/04 05:26:35;;;;;;;4.70;3.27;;;10.40;99.50;;;;;;5038659;28;20208;-70
2023/05/04 05:29:01;;;;;;;4.43;3.93;;;10.40;99.60;;;;;;4989413;28;20228;-70
2023/05/04 05:31:27;;;;;;;6.60;3.80;;;10.40;99.70;;;;;;5026620;28;20607;-72
2023/05/04 05:33:53;;;;;;;4.20;3.10;;;10.40;99.90;;;;;;5022206;28;20451;-72
2023/05/04 05:36:20;;;;;;;5.43;3.33;;;10.40;99.90;;;;;;5035402;28;20458;-71
2023/05/04 05:38:46;;;;;;;5.60;3.70;;;10.50;99.90;;;;;;5039473;28;20470;-71
2023/05/04 05:41:11;;;;;;;6.83;4.30;;;10.60;99.90;;;;;;5037147;28;20451;-71
2023/05/04 05:43:37;;;;;;;3.23;3.03;;;10.60;99.90;;;;;;5025266;28;20546;-71
2023/05/04 05:46:05;;;;;;;5.43;3.97;;;10.60;99.90;;;;;;5029265;28;20312;-71
2023/05/04 05:48:30;;;;;;;5.03;3.60;;;10.60;99.90;;;;;;5026720;28;20478;-69
2023/05/04 05:50:56;;;;;;;5.97;3.63;;;10.70;99.90;;;;;;5023403;28;20483;-68
2023/05/04 05:53:22;;;;;;;6.03;3.53;;;10.70;99.90;;;;;;5025372;28;20779;-71
2023/05/04 05:55:47;;;;;;;5.90;3.97;;;10.70;99.90;;;;;;5042896;28;20654;-71
2023/05/04 05:58:13;;;;;;;4.30;3.57;;;10.70;99.90;;;;;;5031526;28;20263;-72
2023/05/04 06:00:39;;;;;;;5.67;4.30;;;10.80;99.90;;;;;;5039531;28;20228;-71
2023/05/04 06:03:04;;;;;;;6.70;3.40;;;10.80;99.90;;;;;;5032118;28;20225;-72
2023/05/04 06:05:32;;;;;;;3.87;3.50;;;10.80;99.90;;;;;;5029244;28;20212;-72
2023/05/04 06:07:58;;;;;;;9.00;4.20;;;10.90;99.90;;;;;;5034759;28;20224;-71
2023/05/04 06:10:24;;;;;;;4.80;3.50;;;10.90;99.90;;;;;;5041293;28;20529;-72
2023/05/04 06:12:50;;;;;;;4.30;3.70;;;10.90;99.90;;;;;;5027698;28;20248;-72
2023/05/04 06:15:16;;;;;;;6.47;4.57;;;11.00;99.90;;;;;;5043460;28;20223;-71
2023/05/04 06:17:41;;;;;;;5.00;3.93;;;11.10;99.90;;;;;;5039564;28;20220;-71
2023/05/04 06:20:08;;;;;;;5.17;4.10;;;11.10;99.90;;;;;;5027626;28;20472;-73
2023/05/04 06:22:33;;;;;;;6.27;4.60;;;11.20;99.90;;;;;;5027893;28;20255;-72
2023/05/04 06:24:59;;;;;;;5.63;3.50;;;11.30;99.90;;;;;;5034979;28;20491;-72
2023/05/04 06:27:27;;;;;;;4.40;4.00;;;11.30;99.90;;;;;;5034289;28;20709;-72
2023/05/04 06:29:53;;;;;;;5.60;4.17;;;11.30;99.90;;;;;;5033499;28;20645;-71
2023/05/04 06:32:18;;;;;;;5.60;4.27;;;11.40;99.90;;;;;;5038125;28;20486;-72
2023/05/04 06:34:44;;;;;;;11.50;4.30;;;11.50;99.90;;;;;;5037206;28;20574;-72
2023/05/04 06:37:10;;;;;;;5.07;4.37;;;11.60;99.90;;;;;;5029506;28;20708;-72
2023/05/04 06:39:36;;;;;;;7.50;3.87;;;11.60;99.90;;;;;;5033296;28;20219;-71
2023/05/04 06:42:02;;;;;;;4.77;3.93;;;11.70;99.90;;;;;;5032319;28;20220;-72
2023/05/04 06:44:37;;;;;;;5.50;4.40;;;11.70;99.90;;;;;;5023377;28;20455;-72
2023/05/04 06:47:03;;;;;;;7.33;4.30;;;11.80;99.90;;;;;;5037685;28;20467;-72
2023/05/04 06:49:32;;;;;;;5.33;4.40;;;12.00;99.90;;;;;;5040795;28;20470;-72
2023/05/04 06:51:58;;;;;;;7.03;5.53;;;12.00;99.90;;;;;;5038082;28;20233;-72
2023/05/04 06:54:24;;;;;;;4.77;4.20;;;12.10;99.90;;;;;;5029538;28;20474;-71
2023/05/04 06:56:50;;;;;;;5.87;4.90;;;12.00;99.90;;;;;;5037127;28;20463;-72
2023/05/04 06:59:19;;;;;;;5.77;4.10;;;12.20;99.90;;;;;;5037067;28;20212;-72
2023/05/04 07:01:48;;;;;;;3.60;3.30;;;12.20;99.90;;;;;;5038696;28;20447;-72
2023/05/04 07:04:21;;;;;;;3.90;3.57;;;12.30;99.90;;;;;;5039697;28;21112;-72
2023/05/04 07:06:49;;;;;;;5.20;4.40;;;12.40;99.90;;;;;;5045028;28;20468;-72
2023/05/04 07:09:17;;;;;;;5.87;4.40;;;12.40;99.90;;;;;;5033959;28;20487;-71
2023/05/04 07:11:43;;;;;;;5.13;4.63;;;12.50;99.90;;;;;;5036258;28;20486;-72
2023/05/04 07:14:08;;;;;;;5.90;4.90;;;12.60;99.90;;;;;;5029554;28;21008;-73
2023/05/04 07:16:37;;;;;;;6.07;4.60;;;12.60;99.90;;;;;;5022761;28;20302;-72
2023/05/04 07:19:05;;;;;;;5.93;4.40;;;12.80;99.90;;;;;;5034339;28;20228;-71
2023/05/04 07:21:32;;;;;;;5.90;4.27;;;12.90;99.90;;;;;;5041400;28;20528;-72
2023/05/04 07:23:57;;;;;;;5.60;3.97;;;13.00;99.90;;;;;;5031743;28;20482;-73
2023/05/04 07:26:23;;;;;;;6.13;4.87;;;13.20;99.90;;;;;;5028678;28;20463;-72
2023/05/04 07:28:49;;;;;;;7.70;5.30;;;13.20;99.90;;;;;;5032429;28;20220;-72
2023/05/04 07:31:15;;;;;;;6.43;4.90;;;13.20;99.90;;;;;;5019921;28;20218;-72
2023/05/04 07:33:41;;;;;;;7.20;4.80;;;13.30;99.90;;;;;;5039861;28;20221;-72
2023/05/04 07:36:07;;;;;;;5.00;4.50;;;13.40;99.90;;;;;;5032638;28;20355;-72
2023/05/04 07:38:33;;;;;;;4.43;4.03;;;13.40;99.90;;;;;;5022172;28;21081;-73
2023/05/04 07:40:58;;;;;;;6.87;5.00;;;13.50;99.90;;;;;;5031149;28;20224;-72
2023/05/04 07:43:24;;;;;;;5.27;4.63;;;13.60;99.90;;;;;;5038831;28;20243;-72
2023/05/04 07:45:52;;;;;;;4.77;4.20;;;13.70;99.90;;;;;;5031059;28;20303;-72
2023/05/04 07:48:18;;;;;;;9.90;4.40;;;13.90;99.90;;;;;;5020575;28;20701;-72
2023/05/04 07:50:45;;;;;;;6.40;4.93;;;13.90;99.90;;;;;;5035223;28;20473;-71
2023/05/04 07:53:11;;;;;;;6.40;5.40;;;14.10;99.90;;;;;;5027120;28;20541;-72
2023/05/04 07:55:37;;;;;;;6.30;5.37;;;14.20;99.90;;;;;;5037475;28;20499;-72
2023/05/04 07:58:03;;;;;;;6.67;5.13;;;14.20;99.90;;;;;;5037138;28;20462;-72
2023/05/04 08:00:29;;;;;;;4.60;3.90;;;14.10;99.90;;;;;;5019638;28;20908;-72
2023/05/04 08:02:55;;;;;;;6.30;4.50;;;14.20;99.90;;;;;;5030597;28;20252;-71
2023/05/04 08:05:21;;;;;;;6.10;5.10;;;14.50;99.90;;;;;;5029309;28;20224;-70
2023/05/04 08:07:46;;;;;;;5.93;5.33;;;14.60;99.90;;;;;;5032210;28;20479;-71
2023/05/04 08:10:12;;;;;;;6.20;4.70;;;14.70;99.90;;;;;;5028639;28;20576;-71
2023/05/04 08:12:41;;;;;;;7.07;4.87;;;14.90;99.90;;;;;;5027384;28;20220;-72
2023/05/04 08:15:07;;;;;;;5.70;4.57;;;14.80;99.90;;;;;;5022753;28;20312;-72
2023/05/04 08:17:38;;;;;;;5.40;4.67;;;14.80;99.90;;;;;;5026313;28;20464;-71
2023/05/04 08:20:05;;;;;;;5.27;4.70;;;14.90;99.90;;;;;;5031090;28;20494;-71
2023/05/04 08:22:32;;;;;;;5.43;4.20;;;15.00;99.90;;;;;;5034367;28;20505;-71
2023/05/04 08:24:57;;;;;;;9.70;5.33;;;15.20;99.90;;;;;;5034252;28;20469;-71
2023/05/04 08:27:23;;;;;;;4.93;4.40;;;15.20;99.90;;;;;;5034615;28;20454;-71
2023/05/04 08:29:49;;;;;;;6.87;4.67;;;15.20;99.90;;;;;;5026158;28;20226;-71
2023/05/04 08:32:14;;;;;;;5.90;5.07;;;15.10;99.90;;;;;;5038225;28;20217;-71
2023/05/04 08:34:40;;;;;;;5.47;4.37;;;15.10;99.90;;;;;;5037717;28;20671;-70
2023/05/04 08:37:06;;;;;;;6.87;4.20;;;15.40;99.90;;;;;;5033338;28;20224;-71
2023/05/04 08:39:31;;;;;;;7.10;4.67;;;15.60;99.90;;;;;;5012574;28;20302;-71
2023/05/04 08:41:57;;;;;;;6.00;5.20;;;15.50;99.90;;;;;;5027696;28;20213;-72
2023/05/04 08:44:23;;;;;;;4.53;4.10;;;15.60;99.90;;;;;;5023806;28;20208;-71
2023/05/04 08:46:52;;;;;;;7.10;5.53;;;15.70;99.90;;;;;;5024746;28;20274;-72
2023/05/04 08:49:21;;;;;;;4.57;4.20;;;15.70;99.90;;;;;;5029835;28;20228;-71
2023/05/04 08:51:51;;;;;;;5.07;4.60;;;15.90;99.90;;;;;;5038898;28;20483;-72
2023/05/04 08:54:18;;;;;;;4.97;4.33;;;16.20;99.90;;;;;;5040167;28;20475;-71
2023/05/04 08:56:45;;;;;;;5.47;4.77;;;16.20;99.90;;;;;;5045031;28;20545;-70
2023/05/04 08:59:19;;;;;;;6.80;5.07;;;16.30;99.90;;;;;;5038200;28;20554;-69
2023/05/04 09:01:50;;;;;;;5.40;4.43;;;16.40;99.90;;;;;;5044670;28;20455;-72
2023/05/04 09:04:17;;;;;;;7.77;4.50;;;16.30;99.90;;;;;;5043132;28;20465;-72
2023/05/04 09:06:43;;;;;;;4.93;4.40;;;16.50;99.90;;;;;;5011982;28;20467;-70
2023/05/04 09:09:09;;;;;;;7.70;4.97;;;16.70;99.90;;;;;;5021296;28;20466;-72
2023/05/04 09:11:35;;;;;;;4.33;3.93;;;16.80;99.90;;;;;;5009110;28;20823;-71
2023/05/04 09:14:01;;;;;;;4.77;4.30;;;16.90;99.90;;;;;;5018788;28;20503;-71
2023/05/04 09:16:34;;;;;;;5.50;4.60;;;17.00;99.90;;;;;;5026049;28;20683;-71
2023/05/04 09:19:01;;;;;;;4.70;4.03;;;16.90;99.90;;;;;;5033846;28;20304;-71
2023/05/04 09:21:30;;;;;;;5.37;4.87;;;17.20;99.90;;;;;;5011022;28;20472;-71
2023/05/04 09:23:57;;;;;;;5.90;5.30;;;17.30;99.90;;;;;;5011995;28;20547;-70
2023/05/04 09:26:30;;;;;;;5.07;4.60;;;17.10;99.90;;;;;;5035023;28;20455;-71
2023/05/04 09:28:56;;;;;;;6.43;5.27;;;17.30;99.90;;;;;;5018837;28;20867;-72
2023/05/04 09:31:22;;;;;;;6.10;5.37;;;17.10;99.90;;;;;;5022521;28;20521;-71
2023/05/04 09:33:48;;;;;;;9.10;6.07;;;17.20;99.90;;;;;;5024706;28;20496;-72
2023/05/04 09:36:16;;;;;;;5.87;5.27;;;17.30;99.90;;;;;;5022274;28;20456;-72
2023/05/04 09:38:43;;;;;;;5.27;4.77;;;17.60;99.90;;;;;;5032146;28;20483;-72
2023/05/04 09:41:09;;;;;;;7.80;5.73;;;17.70;99.90;;;;;;5032606;28;20443;-72
2023/05/04 09:43:38;;;;;;;10.90;6.63;;;17.80;99.90;;;;;;5015698;28;20491;-72
2023/05/04 09:46:04;;;;;;;8.57;5.67;;;17.80;99.90;;;;;;5030149;28;20221;-71
2023/05/04 09:48:30;;;;;;;6.27;5.67;;;17.80;99.90;;;;;;5011871;28;21020;-72
2023/05/04 09:51:01;;;;;;;6.60;5.27;;;17.80;99.90;;;;;;5031853;28;20225;-72
2023/05/04 09:53:30;;;;;;;5.93;5.00;;;17.90;99.90;;;;;;5032329;28;20974;-71
2023/05/04 09:56:11;;;;;;;9.00;5.13;;;18.40;99.90;;;;;;5036159;28;20478;-72
2023/05/04 09:58:37;;;;;;;5.67;5.07;;;18.70;99.90;;;;;;5008906;28;20451;-72
2023/05/04 10:01:03;;;;;;;6.17;5.57;;;18.90;99.90;;;;;;5011824;28;20998;-72
2023/05/04 10:03:30;;;;;;;6.77;5.80;;;18.70;99.90;;;;;;5035341;28;21082;-72
2023/05/04 10:06:01;;;;;;;7.13;6.13;;;18.70;99.90;;;;;;5021893;28;20781;-72
2023/05/04 10:08:27;;;;;;;9.10;5.30;;;18.80;99.60;;;;;;5032744;28;20491;-72
2023/05/04 10:10:53;;;;;;;5.43;4.93;;;18.80;99.90;;;;;;5015896;28;20460;-72
2023/05/04 10:13:19;;;;;;;4.73;4.30;;;19.00;99.90;;;;;;5037580;28;20477;-72
2023/05/04 10:16:13;;;;;;;6.70;5.03;;;19.10;99.70;;;;;;5033771;28;20459;-71
2023/05/04 10:18:54;;;;;;;5.97;5.40;;;19.10;99.60;;;;;;4972875;28;20780;-72
2023/05/04 10:21:46;;;;;;;5.33;4.83;;;19.20;99.70;;;;;;5026351;28;20459;-73
2023/05/04 10:24:42;;;;;;;7.40;5.27;;;19.40;99.70;;;;;;5022749;28;20459;-72
2023/05/04 10:27:13;;;;;;;7.17;4.70;;;19.70;99.40;;;;;;5018989;28;20474;-72
2023/05/04 10:29:40;;;;;;;6.00;5.40;;;19.60;99.30;;;;;;5022231;28;20456;-72
2023/05/04 10:32:21;;;;;;;5.57;5.07;;;19.50;99.30;;;;;;5007213;28;20464;-72
2023/05/04 10:34:47;;;;;;;6.27;5.73;;;19.60;99.60;;;;;;5036038;28;20466;-72
2023/05/04 10:37:20;;;;;;;5.53;5.00;;;19.50;99.00;;;;;;5023025;28;20460;-72
2023/05/04 10:39:53;;;;;;;5.73;5.13;;;19.80;99.00;;;;;;5032068;28;20456;-72
2023/05/04 10:42:19;;;;;;;8.50;5.10;;;20.20;98.90;;;;;;5022899;28;20473;-73
2023/05/04 10:44:50;;;;;;;6.50;5.43;;;20.40;99.00;;;;;;5026446;28;20475;-72
2023/05/04 10:47:32;;;;;;;6.13;5.53;;;20.50;98.80;;;;;;5005239;28;20465;-72
2023/05/04 10:50:03;;;;;;;6.23;5.53;;;20.50;98.80;;;;;;5024507;28;20456;-72
2023/05/04 10:52:29;;;;;;;5.70;5.20;;;20.40;98.50;;;;;;5024493;28;20871;-73
2023/05/04 10:55:04;;;;;;;6.33;4.87;;;20.50;99.10;;;;;;5024466;28;20803;-72
2023/05/04 10:57:30;;;;;;;9.53;7.43;;;20.80;98.70;;;;;;5024874;28;20499;-72
2023/05/04 10:59:57;;;;;;;5.83;5.23;;;20.50;98.30;;;;;;5027543;28;20475;-73
2023/05/04 11:02:26;;;;;;;6.00;5.40;;;20.50;98.60;;;;;;5025309;28;20463;-71
2023/05/04 11:05:05;;;;;;;6.33;5.73;;;20.70;98.60;;;;;;5025639;28;20871;-73
2023/05/04 11:07:36;;;;;;;8.23;5.90;;;21.30;98.30;;;;;;5027865;28;20451;-72
2023/05/04 11:10:08;;;;;;;6.87;5.17;;;21.00;97.40;;;;;;5011753;28;20840;-71
2023/05/04 11:12:34;;;;;;;6.13;5.13;;;20.70;97.80;;;;;;5028367;28;20574;-72
2023/05/04 11:15:09;;;;;;;6.23;5.63;;;20.70;97.80;;;;;;5038328;28;20467;-72
2023/05/04 11:17:49;;;;;;;5.70;5.10;;;20.30;97.60;;;;;;5039456;28;20462;-72
2023/05/04 11:20:26;;;;;;;5.20;4.70;;;20.40;97.50;;;;;;5046360;28;20829;-73
2023/05/04 11:22:53;;;;;;;5.23;4.83;;;20.70;97.80;;;;;;5025897;28;20559;-72
2023/05/04 11:25:29;;;;;;;7.00;5.27;;;20.90;97.50;;;;;;5040387;28;21031;-72
2023/05/04 11:27:56;;;;;;;7.10;4.60;;;21.10;97.40;;;;;;5030964;28;20582;-71
2023/05/04 11:30:31;;;;;;;7.60;4.80;;;21.00;97.30;;;;;;5033305;28;20456;-73
2023/05/04 11:32:59;;;;;;;5.37;4.57;;;20.90;97.10;;;;;;5034683;28;20454;-72
2023/05/04 11:35:24;;;;;;;4.73;4.33;;;21.10;97.30;;;;;;5007214;28;20455;-72
2023/05/04 11:37:50;;;;;;;5.90;5.30;;;21.30;97.40;;;;;;5035193;28;20493;-73
2023/05/04 11:40:18;;;;;;;6.20;5.13;;;21.20;97.00;;;;;;5035453;28;20212;-72
2023/05/04 11:42:45;;;;;;;4.77;4.37;;;21.30;97.00;;;;;;5030081;28;20224;-72
2023/05/04 11:45:14;;;;;;;5.50;5.00;;;21.70;96.80;;;;;;5014034;28;20511;-72
2023/05/04 11:47:40;;;;;;;7.63;5.40;;;21.80;97.10;;;;;;5012167;28;20476;-72
2023/05/04 11:50:08;;;;;;;5.60;5.10;;;21.70;97.00;;;;;;5034203;28;20455;-73
2023/05/04 11:52:35;;;;;;;6.77;4.53;;;21.70;96.80;;;;;;5030522;28;20945;-73
2023/05/04 11:55:01;;;;;;;5.20;4.70;;;22.00;97.00;;;;;;5035296;28;20468;-72
2023/05/04 11:57:29;;;;;;;6.53;4.60;;;22.30;96.80;;;;;;5030629;28;20463;-72
2023/05/04 11:59:55;;;;;;;8.07;5.20;;;22.40;97.00;;;;;;5031391;28;20477;-72
2023/05/04 12:02:21;;;;;;;5.30;4.83;;;22.70;96.60;;;;;;5015471;28;20455;-72
2023/05/04 12:04:46;;;;;;;9.00;4.30;;;22.40;96.20;;;;;;5021167;28;20216;-73
2023/05/04 12:07:12;;;;;;;4.43;4.03;;;22.50;96.10;;;;;;5012187;28;20213;-73
2023/05/04 12:09:45;;;;;;;5.20;4.70;;;22.40;96.10;;;;;;5024762;28;20244;-72
2023/05/04 12:12:11;;;;;;;5.57;4.77;;;22.30;96.10;;;;;;5030673;28;20229;-72
2023/05/04 12:14:50;;;;;;;6.33;4.70;;;22.50;96.40;;;;;;5031115;28;20475;-73
2023/05/04 12:17:18;;;;;;;4.53;4.00;;;22.80;96.20;;;;;;5044235;28;20706;-73
2023/05/04 12:19:54;;;;;;;4.77;4.40;;;23.10;96.10;;;;;;5017854;28;20459;-73
2023/05/04 12:22:29;;;;;;;4.80;4.40;;;23.20;95.70;;;;;;5047489;28;20485;-73
2023/05/04 12:24:59;;;;;;;4.90;4.40;;;23.20;95.00;;;;;;5033445;28;20481;-73
2023/05/04 12:27:27;;;;;;;4.50;4.20;;;23.00;94.70;;;;;;5034860;28;20454;-73
2023/05/04 12:29:53;;;;;;;4.70;4.20;;;23.10;95.10;;;;;;5014673;28;20513;-73
2023/05/04 12:32:20;;;;;;;4.93;4.53;;;22.60;95.00;;;;;;5029461;28;21050;-73
2023/05/04 12:34:46;;;;;;;4.80;4.30;;;22.40;96.00;;;;;;5029225;28;20217;-73
2023/05/04 12:37:11;;;;;;;4.83;4.43;;;22.40;95.90;;;;;;5026220;28;20984;-73
2023/05/04 12:39:38;;;;;;;4.50;4.10;;;22.70;96.40;;;;;;5036737;28;20232;-72
2023/05/04 12:42:04;;;;;;;3.90;3.57;;;23.10;94.40;;;;;;5008029;28;20303;-73
2023/05/04 12:44:30;;;;;;;4.57;4.17;;;23.30;93.60;;;;;;5022754;28;20601;-73
2023/05/04 12:46:56;;;;;;;4.70;4.30;;;23.30;94.20;;;;;;5027436;28;20216;-73